createdAt,value
2019-04-21T00:01:58.243Z,3.00
2019-04-21T00:04:40.551Z,3.50
2019-04-21T00:07:22.471Z,3.23
2019-04-21T00:09:55.838Z,3.27
2019-04-21T00:12:20.639Z,3.30
2019-04-21T00:14:44.848Z,3.70
2019-04-21T00:17:08.159Z,3.30
2019-04-21T00:19:39.015Z,3.73
2019-04-21T00:22:19.175Z,3.27
2019-04-21T00:24:49.978Z,3.70
2019-04-21T00:27:26.616Z,4.00
2019-04-21T00:29:59.116Z,2.97
2019-04-21T00:32:25.374Z,3.73
2019-04-21T00:34:50.316Z,3.97
2019-04-21T00:37:20.674Z,3.10
2019-04-21T00:40:06.535Z,3.47
2019-04-21T00:42:29.294Z,3.53
2019-04-21T00:45:00.777Z,3.37
2019-04-21T00:47:34.135Z,3.33
2019-04-21T00:50:05.297Z,3.33
2019-04-21T00:52:58.084Z,2.90
2019-04-21T00:55:27.870Z,3.40
2019-04-21T01:00:22.157Z,3.77
2019-04-21T01:05:21.167Z,3.50
2019-04-21T01:07:50.375Z,3.27
2019-04-21T01:10:14.668Z,3.10
2019-04-21T01:12:54.703Z,3.43
2019-04-21T01:15:35.281Z,3.50
2019-04-21T01:18:02.816Z,3.33
2019-04-21T01:20:16.140Z,3.47
2019-04-21T01:22:37.368Z,3.10
2019-04-21T01:25:16.984Z,3.60
2019-04-21T01:27:59.449Z,3.13
2019-04-21T01:30:31.245Z,3.63
2019-04-21T01:33:00.014Z,3.27
2019-04-21T01:35:34.999Z,3.10
2019-04-21T01:38:05.143Z,3.23
2019-04-21T01:40:34.897Z,3.77
2019-04-21T01:43:04.948Z,2.90
2019-04-21T01:45:35.512Z,2.97
2019-04-21T01:48:05.157Z,3.30
2019-04-21T01:50:36.552Z,3.30
2019-04-21T01:53:17.597Z,3.00
2019-04-21T01:56:03.391Z,3.33
2019-04-21T01:58:29.204Z,3.30
2019-04-21T02:01:08.736Z,4.10
2019-04-21T02:06:19.526Z,5.07
2019-04-21T02:08:41.824Z,5.80
2019-04-21T02:11:25.910Z,3.90
2019-04-21T02:13:58.891Z,4.20
2019-04-21T02:16:23.856Z,4.27
2019-04-21T02:18:52.993Z,3.80
2019-04-21T02:21:17.849Z,4.93
2019-04-21T02:24:01.895Z,4.47
2019-04-21T02:26:27.395Z,4.93
2019-04-21T02:31:40.485Z,4.40
2019-04-21T02:34:13.456Z,4.80
2019-04-21T02:40:08.442Z,4.97
2019-04-21T02:41:43.682Z,4.60
2019-04-21T02:44:12.410Z,4.87
2019-04-21T02:49:16.764Z,4.77
2019-04-21T02:51:51.069Z,4.43
2019-04-21T02:56:46.167Z,4.53
2019-04-21T02:59:33.679Z,5.00
2019-04-21T03:02:42.995Z,4.93
2019-04-21T03:05:29.609Z,4.10
2019-04-21T03:07:55.466Z,5.00
2019-04-21T03:10:28.701Z,4.37
2019-04-21T03:12:52.742Z,4.57
2019-04-21T03:15:29.540Z,4.93
2019-04-21T03:17:59.671Z,4.67
2019-04-21T03:22:59.971Z,5.03
2019-04-21T03:25:43.238Z,5.83
2019-04-21T03:28:11.138Z,4.93
2019-04-21T03:30:55.815Z,5.20
2019-04-21T03:36:13.280Z,5.43
2019-04-21T03:38:27.081Z,5.20
2019-04-21T03:40:52.867Z,5.10
2019-04-21T03:43:28.460Z,5.60
2019-04-21T03:46:18.389Z,4.43
2019-04-21T03:48:47.236Z,5.00
2019-04-21T03:51:25.630Z,5.17
2019-04-21T03:53:48.104Z,5.13
2019-04-21T03:56:27.156Z,5.57
2019-04-21T03:58:54.286Z,5.63
2019-04-21T04:01:41.094Z,6.00
2019-04-21T04:04:35.597Z,5.63
2019-04-21T04:07:35.594Z,5.90
2019-04-21T04:10:03.683Z,5.57
2019-04-21T04:12:19.598Z,6.03
2019-04-21T04:14:51.797Z,6.20
2019-04-21T04:17:28.746Z,5.17
2019-04-21T04:19:59.062Z,5.10
2019-04-21T04:22:31.443Z,6.13
2019-04-21T04:32:41.873Z,6.30
2019-04-21T04:40:13.791Z,4.13
2019-04-21T04:42:56.399Z,4.30
2019-04-21T04:47:59.048Z,3.93
2019-04-21T04:50:36.686Z,4.47
2019-04-21T04:53:01.937Z,4.13
2019-04-21T04:55:31.951Z,3.60
2019-04-21T04:57:59.490Z,3.93
2019-04-21T05:00:34.433Z,4.17
2019-04-21T05:02:56.409Z,3.60
2019-04-21T05:05:30.197Z,3.50
2019-04-21T05:08:34.776Z,3.57
2019-04-21T05:10:38.516Z,3.87
2019-04-21T05:13:02.234Z,4.63
2019-04-21T05:15:34.496Z,3.90
2019-04-21T05:18:18.976Z,4.80
2019-04-21T05:20:23.780Z,4.17
2019-04-21T05:22:58.285Z,3.83
2019-04-21T05:25:25.066Z,4.63
2019-04-21T05:27:53.824Z,5.00
2019-04-21T05:30:45.047Z,4.77
2019-04-21T05:33:34.367Z,5.10
2019-04-21T05:36:11.007Z,5.40
2019-04-21T05:39:07.694Z,4.63
2019-04-21T05:41:25.999Z,4.60
2019-04-21T05:44:13.258Z,4.83
2019-04-21T05:46:39.787Z,5.10
2019-04-21T05:49:14.154Z,4.67
2019-04-21T05:51:55.730Z,4.60
2019-04-21T05:54:39.668Z,3.73
2019-04-21T05:57:00.085Z,4.33
2019-04-21T05:59:32.325Z,3.77
2019-04-21T06:02:16.589Z,3.90
2019-04-21T06:05:01.324Z,4.78
2019-04-21T06:07:13.226Z,3.92
2019-04-21T06:09:46.862Z,4.67
2019-04-21T06:12:10.811Z,4.47
2019-04-21T06:14:46.552Z,4.33
2019-04-21T06:17:19.315Z,4.10
2019-04-21T06:22:13.776Z,4.25
2019-04-21T06:24:54.658Z,4.28
2019-04-21T06:27:21.046Z,4.75
2019-04-21T06:29:50.241Z,3.87
2019-04-21T06:35:11.193Z,4.17
2019-04-21T06:37:41.792Z,4.10
2019-04-21T06:40:09.339Z,4.97
2019-04-21T06:42:28.508Z,3.77
2019-04-21T06:45:04.145Z,3.85
2019-04-21T06:47:38.157Z,4.25
2019-04-21T06:49:58.731Z,4.10
2019-04-21T06:55:10.280Z,4.05
2019-04-21T06:57:35.464Z,3.72
2019-04-21T07:00:04.349Z,4.17
2019-04-21T07:02:50.697Z,4.30
2019-04-21T07:05:21.755Z,3.83
2019-04-21T07:07:35.387Z,4.53
2019-04-21T07:10:20.975Z,3.77
2019-04-21T07:12:35.252Z,4.20
2019-04-21T07:15:03.277Z,3.87
2019-04-21T07:17:33.898Z,3.95
2019-04-21T07:25:10.508Z,3.72
2019-04-21T07:27:42.784Z,4.10
2019-04-21T07:30:14.980Z,3.65
2019-04-21T07:32:40.215Z,4.05
2019-04-21T07:35:17.526Z,3.45
2019-04-21T07:37:40.813Z,3.77
2019-04-21T07:40:09.489Z,3.60
2019-04-21T07:42:38.456Z,3.30
2019-04-21T07:45:08.992Z,3.98
2019-04-21T07:47:52.594Z,3.30
2019-04-21T07:50:26.313Z,3.58
2019-04-21T07:53:38.542Z,3.22
2019-04-21T07:55:42.940Z,3.40
2019-04-21T07:58:27.581Z,5.60
2019-04-21T08:01:04.404Z,3.37
2019-04-21T08:03:33.562Z,3.42
2019-04-21T08:06:08.882Z,3.00
2019-04-21T08:08:34.495Z,3.55
2019-04-21T08:11:07.447Z,3.20
2019-04-21T08:13:39.240Z,3.25
2019-04-21T08:18:44.187Z,3.30
2019-04-21T08:21:06.169Z,3.65
2019-04-21T08:23:40.179Z,3.42
2019-04-21T08:26:12.168Z,3.40
2019-04-21T08:28:40.213Z,3.33
2019-04-21T08:31:18.397Z,3.15
2019-04-21T08:33:46.278Z,3.20
2019-04-21T08:36:20.838Z,3.40
2019-04-21T08:38:41.744Z,4.50
2019-04-21T08:41:12.369Z,3.70
2019-04-21T08:43:44.558Z,3.80
2019-04-21T08:46:18.944Z,3.65
2019-04-21T08:48:52.739Z,3.62
2019-04-21T08:56:27.816Z,3.50
2019-04-21T08:59:28.470Z,3.12
2019-04-21T09:02:02.919Z,6.40
2019-04-21T09:04:41.208Z,4.40
2019-04-21T09:09:37.462Z,6.60
2019-04-21T09:12:04.470Z,3.17
2019-04-21T09:14:42.938Z,3.37
2019-04-21T09:17:12.121Z,3.22
2019-04-21T09:22:13.286Z,3.52
2019-04-21T09:25:01.487Z,3.40
2019-04-21T09:27:30.501Z,3.60
2019-04-21T09:29:55.863Z,3.62
2019-04-21T09:32:25.034Z,3.45
2019-04-21T09:34:53.916Z,3.98
2019-04-21T09:37:51.737Z,4.00
2019-04-21T09:40:40.084Z,3.25
2019-04-21T09:43:01.082Z,3.67
2019-04-21T09:45:28.598Z,3.62
2019-04-21T09:48:04.514Z,3.80
2019-04-21T09:50:29.511Z,3.85
2019-04-21T09:53:10.645Z,3.58
2019-04-21T09:55:36.490Z,4.17
2019-04-21T09:58:10.661Z,3.60
2019-04-21T10:00:43.442Z,3.50
2019-04-21T10:03:08.181Z,3.17
2019-04-21T10:05:33.828Z,3.47
2019-04-21T10:08:03.673Z,3.75
2019-04-21T10:10:34.121Z,4.30
2019-04-21T10:13:03.492Z,4.20
2019-04-21T10:15:39.708Z,4.12
2019-04-21T10:18:13.085Z,4.25
2019-04-21T10:20:42.795Z,3.55
2019-04-21T10:23:11.893Z,3.30
2019-04-21T10:25:41.036Z,3.60
2019-04-21T10:28:10.933Z,3.83
2019-04-21T10:30:40.735Z,3.45
2019-04-21T10:33:10.387Z,3.58
2019-04-21T10:35:39.571Z,3.70
2019-04-21T10:38:19.810Z,4.03
2019-04-21T10:40:39.542Z,3.98
2019-04-21T10:43:10.776Z,4.78
2019-04-21T10:45:39.243Z,3.62
2019-04-21T10:48:08.279Z,3.45
2019-04-21T10:50:38.864Z,4.12
2019-04-21T10:53:14.271Z,4.05
2019-04-21T10:55:57.997Z,3.98
2019-04-21T10:58:52.100Z,3.58
2019-04-21T11:01:25.156Z,4.00
2019-04-21T11:04:10.018Z,3.87
2019-04-21T11:06:37.085Z,3.90
2019-04-21T11:09:10.300Z,3.00
2019-04-21T11:11:39.891Z,3.87
2019-04-21T11:14:08.931Z,3.85
2019-04-21T11:16:39.164Z,9.40
2019-04-21T11:19:09.445Z,5.72
2019-04-21T11:21:38.920Z,3.42
2019-04-21T11:24:08.260Z,3.87
2019-04-21T11:26:37.893Z,3.65
2019-04-21T11:29:07.321Z,3.92
2019-04-21T11:31:36.899Z,4.17
2019-04-21T11:34:07.280Z,3.85
2019-04-21T11:36:37.488Z,3.90
2019-04-21T11:39:42.154Z,4.00
2019-04-21T11:42:12.022Z,3.90
2019-04-21T11:44:41.686Z,3.85
2019-04-21T11:47:18.579Z,4.05
2019-04-21T11:49:47.858Z,3.60
2019-04-21T11:52:16.875Z,3.85
2019-04-21T11:54:46.818Z,3.40
2019-04-21T11:57:22.725Z,3.02
2019-04-21T11:59:47.923Z,2.77
2019-04-21T12:02:17.354Z,3.15
2019-04-21T12:04:47.552Z,3.00
2019-04-21T12:07:17.511Z,3.58
2019-04-21T12:09:47.915Z,3.72
2019-04-21T12:12:17.071Z,3.40
2019-04-21T12:14:47.923Z,3.62
2019-04-21T12:17:18.322Z,3.72
2019-04-21T12:20:08.660Z,3.27
2019-04-21T12:22:38.992Z,3.50
2019-04-21T12:25:13.297Z,3.20
2019-04-21T12:27:43.762Z,3.60
2019-04-21T12:30:13.921Z,3.27
2019-04-21T12:33:12.056Z,3.87
2019-04-21T12:35:41.878Z,3.58
2019-04-21T12:38:11.023Z,3.30
2019-04-21T12:40:40.079Z,3.20
2019-04-21T12:43:10.485Z,3.27
2019-04-21T12:45:40.011Z,3.60
2019-04-21T12:48:10.427Z,3.12
2019-04-21T12:50:39.846Z,3.00
2019-04-21T12:53:09.802Z,3.50
2019-04-21T12:55:42.781Z,3.12
2019-04-21T12:58:11.159Z,2.70
2019-04-21T13:00:40.984Z,3.30
2019-04-21T13:03:10.263Z,3.20
2019-04-21T13:05:39.976Z,3.90
2019-04-21T13:08:09.305Z,3.30
2019-04-21T13:10:38.601Z,3.25
2019-04-21T13:13:08.133Z,3.27
2019-04-21T13:15:37.617Z,3.10
2019-04-21T13:18:08.142Z,3.08
2019-04-21T13:20:38.227Z,2.95
2019-04-21T13:23:08.118Z,3.17
2019-04-21T13:25:38.084Z,3.37
2019-04-21T13:28:07.200Z,3.45
2019-04-21T13:30:36.430Z,2.72
2019-04-21T13:33:07.038Z,3.15
2019-04-21T13:35:37.192Z,3.40
2019-04-21T13:38:18.672Z,3.80
2019-04-21T13:41:10.467Z,3.10
2019-04-21T13:43:27.331Z,3.50
2019-04-21T13:45:57.523Z,3.15
2019-04-21T13:48:26.739Z,3.10
2019-04-21T13:50:55.743Z,3.17
2019-04-21T13:53:24.993Z,3.10
2019-04-21T13:55:54.169Z,3.50
2019-04-21T13:58:24.204Z,2.60
2019-04-21T14:00:54.211Z,2.90
2019-04-21T14:03:26.232Z,3.22
2019-04-21T14:06:06.689Z,2.80
2019-04-21T14:08:36.970Z,2.72
2019-04-21T14:11:07.207Z,2.80
2019-04-21T14:13:36.535Z,3.25
2019-04-21T14:16:06.264Z,3.08
2019-04-21T14:18:36.489Z,2.70
2019-04-21T14:21:07.149Z,3.35
2019-04-21T14:23:43.337Z,3.58
2019-04-21T14:26:26.808Z,2.90
2019-04-21T14:28:56.827Z,3.15
2019-04-21T14:31:26.378Z,2.92
2019-04-21T14:33:56.297Z,3.27
2019-04-21T14:36:26.529Z,2.90
2019-04-21T14:38:56.638Z,3.72
2019-04-21T14:41:26.322Z,2.83
2019-04-21T14:43:55.410Z,3.02
2019-04-21T14:46:43.388Z,2.62
2019-04-21T14:49:31.487Z,3.00
2019-04-21T14:52:10.669Z,2.98
2019-04-21T14:54:58.736Z,2.98
2019-04-21T14:57:29.351Z,3.17
2019-04-21T14:59:58.526Z,2.72
2019-04-21T15:02:27.783Z,2.80
2019-04-21T15:04:57.796Z,2.55
2019-04-21T15:07:27.568Z,2.85
2019-04-21T15:10:04.709Z,2.40
2019-04-21T15:12:27.917Z,2.67
2019-04-21T15:14:58.036Z,2.92
2019-04-21T15:17:29.088Z,2.75
2019-04-21T15:20:02.507Z,3.30
2019-04-21T15:22:30.262Z,3.22
2019-04-21T15:25:00.567Z,2.95
2019-04-21T15:27:30.730Z,3.00
2019-04-21T15:30:00.576Z,2.92
2019-04-21T15:32:30.559Z,2.90
2019-04-21T15:35:00.337Z,2.67
2019-04-21T15:37:29.518Z,2.87
2019-04-21T15:40:02.055Z,2.85
2019-04-21T15:42:30.563Z,3.20
2019-04-21T15:45:00.943Z,2.90
2019-04-21T15:47:29.881Z,3.00
2019-04-21T15:50:06.519Z,2.70
2019-04-21T15:52:31.678Z,3.12
2019-04-21T15:55:12.649Z,2.87
2019-04-21T15:58:04.802Z,2.70
2019-04-21T16:00:49.634Z,3.60
2019-04-21T16:03:20.595Z,3.40
2019-04-21T16:05:50.800Z,3.15
2019-04-21T16:08:20.437Z,3.15
2019-04-21T16:10:56.031Z,2.77
2019-04-21T16:13:21.630Z,2.45
2019-04-21T16:15:50.694Z,2.58
2019-04-21T16:18:20.476Z,2.87
2019-04-21T16:20:49.906Z,2.90
2019-04-21T16:23:20.477Z,2.52
2019-04-21T16:25:50.788Z,3.17
2019-04-21T16:28:21.530Z,3.05
2019-04-21T16:30:52.120Z,2.83
2019-04-21T16:33:21.137Z,2.52
2019-04-21T16:35:51.609Z,3.15
2019-04-21T16:38:21.633Z,2.83
2019-04-21T16:40:57.483Z,2.90
2019-04-21T16:43:22.802Z,3.80
2019-04-21T16:45:52.899Z,3.35
2019-04-21T16:48:23.327Z,2.80
2019-04-21T16:50:52.394Z,2.90
2019-04-21T16:53:28.288Z,3.15
2019-04-21T16:56:17.217Z,3.37
2019-04-21T16:58:52.670Z,3.02
2019-04-21T17:01:29.645Z,2.87
2019-04-21T17:03:58.494Z,2.90
2019-04-21T17:06:29.061Z,2.62
2019-04-21T17:08:58.972Z,2.83
2019-04-21T17:11:33.100Z,2.85
2019-04-21T17:14:00.128Z,2.75
2019-04-21T17:16:59.480Z,2.72
2019-04-21T17:19:13.207Z,2.90
2019-04-21T17:21:32.139Z,3.27
2019-04-21T17:24:02.145Z,3.17
2019-04-21T17:26:34.121Z,2.80
2019-04-21T17:29:02.655Z,6.55
2019-04-21T17:31:31.747Z,3.58
2019-04-21T17:34:08.610Z,3.25
2019-04-21T17:36:32.989Z,3.62
2019-04-21T17:39:02.875Z,3.65
2019-04-21T17:41:40.961Z,3.87
2019-04-21T17:44:02.765Z,2.87
2019-04-21T17:46:43.136Z,2.95
2019-04-21T17:49:03.191Z,3.08
2019-04-21T17:52:02.947Z,2.58
2019-04-21T17:54:41.881Z,3.20
2019-04-21T17:57:26.547Z,2.98
2019-04-21T18:00:04.731Z,3.17
2019-04-21T18:02:32.367Z,2.98
2019-04-21T18:05:07.309Z,2.72
2019-04-21T18:07:31.451Z,2.55
2019-04-21T18:10:14.396Z,2.83
2019-04-21T18:12:32.229Z,2.80
2019-04-21T18:14:56.311Z,2.65
2019-04-21T18:17:18.497Z,2.65
2019-04-21T18:19:51.405Z,2.27
2019-04-21T18:22:41.764Z,2.30
2019-04-21T18:25:25.269Z,2.72
2019-04-21T18:27:42.725Z,2.80
2019-04-21T18:30:40.328Z,2.80
2019-04-21T18:33:15.618Z,2.62
2019-04-21T18:36:00.060Z,2.35
2019-04-21T18:38:57.044Z,2.90
2019-04-21T18:41:07.730Z,2.25
2019-04-21T18:44:08.037Z,2.75
2019-04-21T18:46:38.653Z,2.42
2019-04-21T18:48:57.219Z,2.95
2019-04-21T18:51:51.717Z,2.87
2019-04-21T18:54:36.009Z,2.95
2019-04-21T18:56:57.594Z,3.33
2019-04-21T18:59:21.193Z,3.62
2019-04-21T19:01:57.728Z,3.87
2019-04-21T19:04:25.646Z,3.10
2019-04-21T19:07:07.665Z,3.70
2019-04-21T19:10:03.527Z,4.10
2019-04-21T19:12:16.730Z,4.20
2019-04-21T19:14:46.352Z,4.28
2019-04-21T19:22:20.119Z,4.05
2019-04-21T19:24:48.384Z,3.90
2019-04-21T19:27:19.188Z,4.08
2019-04-21T19:29:51.851Z,3.90
2019-04-21T19:32:19.781Z,3.80
2019-04-21T19:34:34.925Z,3.62
2019-04-21T19:37:08.691Z,4.75
2019-04-21T19:39:43.405Z,4.10
2019-04-21T19:42:18.255Z,3.90
2019-04-21T19:44:47.220Z,4.20
2019-04-21T19:47:22.857Z,5.20
2019-04-21T19:49:58.389Z,5.83
2019-04-21T19:52:11.347Z,5.00
2019-04-21T19:54:39.768Z,5.28
2019-04-21T19:57:07.065Z,4.03
2019-04-21T19:59:42.255Z,4.17
2019-04-21T20:02:08.856Z,3.75
2019-04-21T20:04:43.905Z,3.35
2019-04-21T20:07:23.032Z,3.50
2019-04-21T20:09:57.532Z,3.10
2019-04-21T20:12:35.555Z,4.10
2019-04-21T20:15:04.821Z,3.77
2019-04-21T20:17:32.483Z,3.43
2019-04-21T20:19:42.462Z,4.15
2019-04-21T20:22:11.455Z,3.58
2019-04-21T20:24:49.950Z,4.13
2019-04-21T20:27:19.090Z,4.42
2019-04-21T20:29:56.162Z,4.97
2019-04-21T20:32:36.263Z,4.53
2019-04-21T20:35:00.929Z,5.10
2019-04-21T20:37:34.536Z,5.57
2019-04-21T20:39:50.508Z,5.00
2019-04-21T20:42:27.968Z,4.97
2019-04-21T20:47:42.377Z,5.03
2019-04-21T20:50:22.147Z,5.70
2019-04-21T20:52:53.909Z,4.53
2019-04-21T20:55:17.680Z,4.93
2019-04-21T20:57:51.475Z,4.63
2019-04-21T21:00:30.154Z,6.90
2019-04-21T21:03:04.209Z,5.73
2019-04-21T21:05:27.567Z,5.23
2019-04-21T21:08:03.625Z,5.40
2019-04-21T21:10:29.565Z,5.97
2019-04-21T21:13:07.590Z,5.90
2019-04-21T21:15:29.161Z,5.73
2019-04-21T21:18:12.719Z,6.07
2019-04-21T21:20:39.301Z,6.30
2019-04-21T21:23:05.248Z,5.77
2019-04-21T21:25:41.633Z,6.60
2019-04-21T21:27:59.571Z,6.40
2019-04-21T21:30:32.556Z,5.90
2019-04-21T21:33:11.475Z,5.93
2019-04-21T21:35:36.698Z,5.43
2019-04-21T21:38:13.541Z,5.20
2019-04-21T21:40:42.069Z,5.10
2019-04-21T21:42:57.394Z,4.70
2019-04-21T21:45:29.315Z,3.97
2019-04-21T21:48:16.072Z,4.07
2019-04-21T21:50:42.376Z,5.10
2019-04-21T21:53:07.736Z,5.97
2019-04-21T21:55:32.787Z,6.17
2019-04-21T21:58:03.506Z,5.87
2019-04-21T22:00:32.397Z,5.77
2019-04-21T22:03:12.031Z,6.50
2019-04-21T22:05:42.789Z,6.60
2019-04-21T22:08:02.748Z,6.10
2019-04-21T22:10:32.215Z,5.40
2019-04-21T22:13:07.181Z,4.93
2019-04-21T22:15:33.761Z,4.60
2019-04-21T22:18:30.312Z,5.10
2019-04-21T22:20:52.259Z,4.30
2019-04-21T22:23:11.331Z,5.43
2019-04-21T22:25:39.504Z,4.50
2019-04-21T22:28:05.612Z,4.17
2019-04-21T22:30:40.340Z,4.10
2019-04-21T22:33:10.024Z,4.30
2019-04-21T22:35:42.589Z,4.17
2019-04-21T22:38:19.566Z,4.00
2019-04-21T22:40:53.257Z,4.10
2019-04-21T22:43:19.217Z,4.00
2019-04-21T22:45:41.142Z,3.77
2019-04-21T22:48:14.378Z,3.87
2019-04-21T22:50:42.613Z,3.63
2019-04-21T22:53:13.723Z,4.17
2019-04-21T22:55:43.114Z,3.77
2019-04-21T22:58:17.073Z,3.63
2019-04-21T23:00:48.647Z,4.03
2019-04-21T23:03:19.297Z,3.50
2019-04-21T23:05:46.187Z,3.53
2019-04-21T23:08:15.155Z,3.43
2019-04-21T23:10:49.694Z,3.60
2019-04-21T23:13:19.520Z,3.83
2019-04-21T23:15:51.315Z,3.10
2019-04-21T23:18:31.542Z,3.90
2019-04-21T23:21:03.361Z,4.03
2019-04-21T23:23:41.458Z,4.03
2019-04-21T23:26:09.026Z,4.00
2019-04-21T23:28:40.179Z,3.77
2019-04-21T23:31:11.087Z,3.60
2019-04-21T23:33:22.027Z,3.87
2019-04-21T23:36:00.926Z,4.40
2019-04-21T23:38:32.137Z,3.77
2019-04-21T23:40:58.246Z,3.60
2019-04-21T23:43:27.311Z,3.80
2019-04-21T23:45:54.543Z,4.00
2019-04-21T23:48:36.439Z,3.87
2019-04-21T23:51:07.781Z,4.50
2019-04-21T23:53:25.693Z,4.17
2019-04-21T23:55:54.951Z,4.20
2019-04-21T23:58:26.444Z,4.43
